Time;durP1;ratioP1;P1;durP2;ratioP2;P2;SDS_P1;SDS_P2;PMS_P1;PMS_P2;Temp;Humidity;BMP_temperature;BMP_pressure;BME280_temperature;BME280_humidity;BME280_pressure;Samples;Min_cycle;Max_cycle;Signal;HPM_P1;HPM_P2
2022/09/06 00:01:12;;;;;;;7.00;4.43;;;;;;;20.11;66.82;69010.16;5007037;28;20049;-77
2022/09/06 00:03:38;;;;;;;4.57;4.03;;;;;;;;;;5005662;28;20359;-78
2022/09/06 00:06:12;;;;;;;5.72;4.32;;;;;;;20.20;67.05;69020.47;5006950;28;20118;-77
2022/09/06 00:08:38;;;;;;;4.78;4.28;;;;;;;20.31;66.32;69027.63;5006926;28;20136;-77
2022/09/06 00:11:04;;;;;;;7.65;4.40;;;;;;;20.43;65.77;69046.22;5007276;28;20130;-76
2022/09/06 00:13:29;;;;;;;6.45;4.45;;;;;;;;;;5006858;28;20053;-77
2022/09/06 00:15:55;;;;;;;7.40;4.63;;;;;;;20.46;65.79;69050.19;5005627;28;20042;-77
2022/09/06 00:18:20;;;;;;;6.70;4.65;;;;;;;20.44;65.99;69050.63;5005441;28;20788;-77
2022/09/06 00:20:46;;;;;;;4.75;4.20;;;;;;;;;;5005829;28;20481;-77
2022/09/06 00:23:11;;;;;;;8.35;4.43;;;;;;;;;;5007316;28;20049;-77
2022/09/06 00:25:36;;;;;;;9.37;4.10;;;;;;;;;;5007106;28;20042;-78
2022/09/06 00:28:03;;;;;;;7.80;4.03;;;;;;;;;;5008744;28;20375;-77
2022/09/06 00:30:30;;;;;;;5.57;4.20;;;;;;;20.45;65.25;69048.47;5007013;28;20501;-78
2022/09/06 00:32:56;;;;;;;5.60;4.30;;;;;;;;;;5006914;28;20046;-77
2022/09/06 00:35:23;;;;;;;7.07;4.43;;;;;;;;;;5004146;28;20419;-77
2022/09/06 00:37:48;;;;;;;10.20;4.78;;;;;;;;;;5005510;28;20042;-77
2022/09/06 00:40:14;;;;;;;5.85;4.43;;;;;;;20.35;65.96;69031.66;5004867;28;20128;-78
2022/09/06 00:42:40;;;;;;;8.73;4.70;;;;;;;20.28;66.53;69032.31;5006904;28;20560;-78
2022/09/06 00:45:07;;;;;;;8.07;4.05;;;;;;;20.21;66.53;69016.78;5005973;28;20053;-77
2022/09/06 00:47:35;;;;;;;6.93;4.18;;;;;;;20.23;66.58;69018.50;5006439;28;20048;-77
2022/09/06 00:50:01;;;;;;;6.70;4.18;;;;;;;;;;5005718;28;20030;-77
2022/09/06 00:52:27;;;;;;;4.72;3.90;;;;;;;;;;5006651;28;20042;-77
2022/09/06 00:54:53;;;;;;;6.15;4.28;;;;;;;20.13;67.82;69012.47;5007372;28;20042;-77
2022/09/06 00:57:18;;;;;;;5.72;3.97;;;;;;;20.13;67.18;69007.06;5009612;28;20041;-77
2022/09/06 00:59:44;;;;;;;7.78;4.00;;;;;;;;;;5007034;28;20046;-77
2022/09/06 01:02:10;;;;;;;6.22;4.05;;;;;;;19.99;68.60;68992.19;5002019;28;20462;-77
2022/09/06 01:04:40;;;;;;;9.57;4.88;;;;;;;19.98;68.62;68996.47;5005214;28;20555;-77
2022/09/06 01:07:11;;;;;;;6.32;4.47;;;;;;;20.00;67.93;68998.75;5004002;28;20046;-78
2022/09/06 01:10:05;;;;;;;7.90;4.82;;;;;;;19.94;68.70;68991.91;5007632;28;20034;-77
2022/09/06 01:12:42;;;;;;;9.32;4.40;;;;;;;;;;5004149;28;20053;-80
2022/09/06 01:15:22;;;;;;;7.07;4.18;;;;;;;19.81;69.81;68972.19;5003295;28;20084;-78
2022/09/06 01:18:26;;;;;;;6.82;4.40;;;;;;;19.72;70.33;68966.75;5001895;28;20038;-77
2022/09/06 01:21:13;;;;;;;6.65;5.03;;;;;;;19.61;70.98;68957.97;4938368;28;20131;-78
2022/09/06 01:23:57;;;;;;;5.78;4.85;;;;;;;;;;4936440;28;20142;-77
2022/09/06 01:27:00;;;;;;;5.75;4.80;;;;;;;19.64;70.62;68957.56;4986185;28;20552;-78
2022/09/06 01:29:49;;;;;;;8.13;5.05;;;;;;;19.57;71.47;68950.72;5004708;28;20042;-76
2022/09/06 01:32:20;;;;;;;7.57;5.05;;;;;;;;;;5006877;28;20133;-77
2022/09/06 01:34:52;;;;;;;5.85;4.47;;;;;;;19.54;71.37;68941.91;5005890;28;20527;-77
2022/09/06 01:37:19;;;;;;;8.68;4.93;;;;;;;19.46;72.21;68932.75;5006138;28;20084;-77
2022/09/06 01:39:44;;;;;;;8.57;5.57;;;;;;;19.41;72.01;68926.47;5005477;28;20060;-77
2022/09/06 01:42:21;;;;;;;8.75;6.00;;;;;;;;;;5005920;28;20826;-77
2022/09/06 01:44:53;;;;;;;7.30;5.30;;;;;;;19.48;71.89;68939.84;5003354;28;20595;-77
2022/09/06 01:47:27;;;;;;;7.07;5.93;;;;;;;19.42;72.24;68927.59;5004265;28;20125;-77
2022/09/06 01:50:07;;;;;;;8.43;5.78;;;;;;;;;;5008874;28;20050;-76
2022/09/06 01:52:52;;;;;;;7.97;6.15;;;;;;;;;;5007686;28;20045;-77
2022/09/06 01:55:30;;;;;;;6.38;5.72;;;;;;;;;;4999063;28;20069;-78
2022/09/06 01:58:13;;;;;;;7.50;5.45;;;;;;;19.60;70.63;68948.75;5007412;28;20390;-78
2022/09/06 02:00:45;;;;;;;6.93;5.43;;;;;;;;;;5059717;22;20065;-77
2022/09/06 02:03:25;;;;;;;9.20;6.18;;;;;;;19.52;71.48;68947.69;5039955;28;20061;-77
2022/09/06 02:05:56;;;;;;;6.88;6.18;;;;;;;19.58;71.19;68954.56;5039845;28;20056;-76
2022/09/06 02:08:29;;;;;;;9.43;6.43;;;;;;;19.64;70.83;68957.56;5029020;28;20057;-76
2022/09/06 02:10:59;;;;;;;7.80;6.30;;;;;;;;;;5029690;28;20129;-77
2022/09/06 02:13:27;;;;;;;7.80;5.93;;;;;;;;;;5028177;28;20520;-77
2022/09/06 02:15:59;;;;;;;9.67;6.67;;;;;;;;;;5044193;28;20132;-77
2022/09/06 02:18:45;;;;;;;8.85;6.85;;;;;;;19.62;70.20;68955.84;5029121;28;20103;-77
2022/09/06 02:21:16;;;;;;;8.95;7.20;;;;;;;19.60;70.38;68954.16;5014369;28;20075;-76
2022/09/06 02:23:43;;;;;;;9.70;6.90;;;;;;;19.61;70.48;68955.28;5030024;28;20507;-77
2022/09/06 02:26:16;;;;;;;11.07;7.45;;;;;;;19.55;70.94;68948.44;5026302;28;20128;-77
2022/09/06 02:28:41;;;;;;;8.15;7.15;;;;;;;;;;5029680;28;20076;-76
2022/09/06 02:31:40;;;;;;;11.73;7.45;;;;;;;19.47;72.21;68939.28;5027861;28;20492;-77
2022/09/06 02:34:06;;;;;;;10.82;7.50;;;;;;;19.46;72.59;68938.16;5030367;28;20526;-77
2022/09/06 02:36:34;;;;;;;11.20;8.00;;;;;;;;;;5028678;28;20132;-77
2022/09/06 02:39:00;;;;;;;9.70;8.48;;;;;;;19.46;73.79;68940.28;5029768;28;20053;-77
2022/09/06 02:41:26;;;;;;;10.57;8.60;;;;;;;;;;5028275;28;20404;-77
2022/09/06 02:43:52;;;;;;;11.18;8.23;;;;;;;19.38;74.88;68929.00;5029829;28;20037;-77
2022/09/06 02:46:17;;;;;;;11.43;8.90;;;;;;;19.39;75.36;68930.13;5026445;28;20053;-77
2022/09/06 02:48:42;;;;;;;12.40;8.60;;;;;;;;;;5043622;28;20423;-77
2022/09/06 02:51:08;;;;;;;12.37;8.43;;;;;;;19.40;75.35;68931.28;5027658;28;20068;-77
2022/09/06 02:53:33;;;;;;;11.93;9.05;;;;;;;;;;5028033;28;20281;-77
2022/09/06 02:55:59;;;;;;;12.55;8.93;;;;;;;;;;5043920;28;20650;-76
2022/09/06 02:58:24;;;;;;;12.95;9.43;;;;;;;19.31;76.56;68921.03;5043181;28;20158;-77
2022/09/06 03:00:51;;;;;;;12.25;8.95;;;;;;;19.29;76.51;68919.28;5028181;28;20041;-77
2022/09/06 03:03:17;;;;;;;13.68;9.60;;;;;;;19.27;77.11;68917.00;5027408;28;20041;-76
2022/09/06 03:05:46;;;;;;;12.48;9.73;;;;;;;19.23;77.68;68906.47;5032314;28;20079;-77
2022/09/06 03:08:11;;;;;;;;;;;;;;;19.20;77.62;68909.00;5027782;28;20103;-76
2022/09/06 03:10:37;;;;;;;13.47;9.13;;;;;;;19.07;78.53;68894.72;5028676;28;19964;-77
2022/09/06 03:13:02;;;;;;;11.77;8.98;;;;;;;;;;5043601;28;20383;-77
2022/09/06 03:15:27;;;;;;;13.73;9.38;;;;;;;19.10;78.99;68898.16;5026394;28;20056;-76
2022/09/06 03:17:55;;;;;;;12.32;9.25;;;;;;;;;;5026934;28;20080;-76
2022/09/06 03:20:21;;;;;;;15.45;9.85;;;;;;;19.19;79.19;68907.88;5028155;28;20116;-77
2022/09/06 03:22:46;;;;;;;15.13;10.18;;;;;;;;;;5028078;28;20167;-76
2022/09/06 03:25:12;;;;;;;12.15;9.23;;;;;;;19.21;79.63;68904.19;5028151;28;20053;-77
2022/09/06 03:27:37;;;;;;;11.68;9.18;;;;;;;19.22;79.40;68905.91;5027919;28;20061;-76
2022/09/06 03:30:05;;;;;;;13.77;10.68;;;;;;;19.21;80.04;68909.59;5025893;28;20496;-76
2022/09/06 03:32:30;;;;;;;13.55;10.43;;;;;;;19.21;80.19;68909.59;5028985;28;20045;-77
2022/09/06 03:34:56;;;;;;;10.93;9.88;;;;;;;19.16;80.60;68905.03;5031117;28;20121;-77
2022/09/06 03:37:21;;;;;;;13.73;9.45;;;;;;;19.14;80.18;68902.16;5027593;28;20095;-77
2022/09/06 03:39:46;;;;;;;12.80;9.77;;;;;;;19.10;81.00;68892.78;5028082;28;20045;-76
2022/09/06 03:42:12;;;;;;;13.77;10.15;;;;;;;;;;5027394;28;20130;-76
2022/09/06 03:44:37;;;;;;;12.63;9.50;;;;;;;;;;5027293;28;20041;-77
2022/09/06 03:47:02;;;;;;;15.50;10.17;;;;;;;19.06;81.05;68893.03;5024357;28;20276;-77
2022/09/06 03:49:28;;;;;;;12.73;10.98;;;;;;;19.05;81.70;68892.44;5024819;28;20272;-77
2022/09/06 03:51:53;;;;;;;12.73;9.77;;;;;;;;;;5019532;28;20651;-77
2022/09/06 03:54:19;;;;;;;13.40;9.80;;;;;;;18.97;82.45;68882.75;5014598;28;20729;-77
2022/09/06 03:56:44;;;;;;;12.57;9.55;;;;;;;18.91;82.28;68871.63;5026379;28;20620;-77
2022/09/06 03:59:09;;;;;;;13.50;11.18;;;;;;;;;;5025697;28;20738;-77
2022/09/06 04:01:34;;;;;;;16.00;10.77;;;;;;;18.88;82.39;68873.59;5023801;28;20058;-78
2022/09/06 04:04:00;;;;;;;15.73;10.70;;;;;;;18.86;82.67;68865.34;5023884;28;20361;-78
2022/09/06 04:06:26;;;;;;;15.13;11.20;;;;;;;;;;5026369;28;20048;-77
2022/09/06 04:08:51;;;;;;;14.18;10.77;;;;;;;18.80;82.69;68866.59;5020635;28;20077;-77
2022/09/06 04:11:16;;;;;;;14.68;10.73;;;;;;;18.74;84.82;68857.03;5023935;28;20040;-77
2022/09/06 04:13:42;;;;;;;14.35;11.40;;;;;;;18.83;83.04;68862.50;5026130;28;20049;-78
2022/09/06 04:16:07;;;;;;;15.73;11.40;;;;;;;18.88;84.22;68876.28;5025450;28;20632;-77
2022/09/06 04:18:33;;;;;;;14.50;11.55;;;;;;;18.95;83.69;68881.03;5016597;28;21894;-78
2022/09/06 04:20:58;;;;;;;16.60;12.15;;;;;;;;;;4998900;28;20042;-77
2022/09/06 04:23:24;;;;;;;16.40;12.75;;;;;;;;;;5003350;28;20044;-77
2022/09/06 04:25:51;;;;;;;18.30;13.40;;;;;;;;;;5000663;28;20049;-77
2022/09/06 04:28:17;;;;;;;16.30;14.15;;;;;;;;;;5003614;28;20045;-78
2022/09/06 04:30:43;;;;;;;18.70;13.80;;;;;;;;;;4997000;28;20096;-77
2022/09/06 04:33:08;;;;;;;18.58;14.57;;;;;;;18.60;92.96;68836.19;5000487;28;20125;-78
2022/09/06 04:35:33;;;;;;;19.20;16.63;;;;;;;18.38;96.21;68817.59;4996152;28;20038;-78
2022/09/06 04:37:59;;;;;;;19.00;16.25;;;;;;;18.20;97.60;68799.75;5000280;28;20065;-77
2022/09/06 04:40:25;;;;;;;21.95;16.48;;;;;;;;;;4999107;28;20528;-78
2022/09/06 04:42:50;;;;;;;21.13;16.52;;;;;;;18.37;96.78;68816.47;5003735;28;20045;-77
2022/09/06 04:45:15;;;;;;;22.35;17.67;;;;;;;;;;5004238;28;21083;-76
2022/09/06 04:47:41;;;;;;;20.75;17.60;;;;;;;18.34;99.91;68807.09;5020411;28;20104;-77
2022/09/06 04:50:06;;;;;;;25.80;19.17;;;;;;;18.27;100.00;68805.63;5022693;28;20523;-78
2022/09/06 04:52:32;;;;;;;27.02;19.10;;;;;;;;;;5022947;28;20038;-77
2022/09/06 04:54:57;;;;;;;29.67;20.98;;;;;;;18.10;100.00;68785.66;5023528;28;20057;-76
2022/09/06 04:57:22;;;;;;;27.70;22.13;;;;;;;17.91;100.00;68765.09;5017387;28;20050;-78
2022/09/06 04:59:48;;;;;;;29.23;20.60;;;;;;;17.95;100.00;68769.69;5019347;28;20060;-78
2022/09/06 05:02:13;;;;;;;28.08;22.77;;;;;;;17.98;100.00;68772.50;5038197;28;20124;-77
2022/09/06 05:04:38;;;;;;;28.55;22.92;;;;;;;;;;5024571;28;20566;-78
2022/09/06 05:07:07;;;;;;;26.52;23.70;;;;;;;17.95;100.00;68769.09;5019670;28;20060;-77
2022/09/06 05:09:32;;;;;;;26.20;22.60;;;;;;;;;;5024970;28;20050;-78
2022/09/06 05:11:58;;;;;;;25.00;22.30;;;;;;;17.84;100.00;68756.53;5029215;28;20068;-78
2022/09/06 05:14:25;;;;;;;29.77;22.02;;;;;;;17.87;100.00;68754.59;5033885;28;20072;-77
2022/09/06 05:16:50;;;;;;;26.98;21.75;;;;;;;17.83;100.00;68750.56;5020470;28;20088;-77
2022/09/06 05:19:16;;;;;;;28.33;23.48;;;;;;;;;;5025319;28;20552;-78
2022/09/06 05:21:41;;;;;;;26.70;22.75;;;;;;;17.79;100.00;68751.41;5025229;28;20041;-78
2022/09/06 05:24:06;;;;;;;27.92;23.55;;;;;;;17.77;100.00;68749.09;5026445;28;20132;-78
2022/09/06 05:26:32;;;;;;;27.33;23.38;;;;;;;17.74;100.00;68740.84;5031033;28;20070;-78
2022/09/06 05:28:57;;;;;;;30.58;22.88;;;;;;;;;;5029327;28;20037;-77
2022/09/06 05:31:24;;;;;;;27.70;23.47;;;;;;;;;;5030336;28;20061;-77
2022/09/06 05:33:50;;;;;;;28.05;22.33;;;;;;;;;;5028469;28;20286;-78
2022/09/06 05:36:16;;;;;;;26.27;21.08;;;;;;;17.81;100.00;68753.69;5025650;28;20041;-77
2022/09/06 05:38:41;;;;;;;30.05;23.90;;;;;;;17.90;100.00;68763.41;5051449;28;20053;-77
2022/09/06 05:41:06;;;;;;;31.02;22.52;;;;;;;17.87;100.00;68755.16;5036162;28;20626;-78
2022/09/06 05:43:32;;;;;;;27.30;21.27;;;;;;;17.88;100.00;68761.09;5039145;28;20049;-78
2022/09/06 05:45:57;;;;;;;29.35;23.83;;;;;;;17.94;100.00;68762.56;5037263;28;20045;-78
2022/09/06 05:48:23;;;;;;;28.55;23.92;;;;;;;;;;5038911;28;20520;-78
2022/09/06 05:50:58;;;;;;;27.13;23.45;;;;;;;;;;5037830;28;20045;-78
2022/09/06 05:53:23;;;;;;;31.60;24.65;;;;;;;17.95;100.00;68763.69;5037098;28;20038;-78
2022/09/06 05:55:48;;;;;;;31.00;25.15;;;;;;;;;;5038818;28;20531;-78
2022/09/06 05:58:13;;;;;;;29.25;25.48;;;;;;;17.90;100.00;68758.56;5037382;28;20033;-78
2022/09/06 06:00:39;;;;;;;33.17;24.42;;;;;;;17.88;100.00;68756.28;5036531;28;20068;-78
2022/09/06 06:03:04;;;;;;;35.72;25.90;;;;;;;17.84;100.00;68756.53;5031176;28;20045;-78
2022/09/06 06:05:29;;;;;;;30.88;25.40;;;;;;;;;;5037238;28;20416;-78
2022/09/06 06:07:56;;;;;;;34.03;26.60;;;;;;;;;;5032578;28;20053;-78
2022/09/06 06:10:22;;;;;;;33.67;27.33;;;;;;;;;;5034992;28;20276;-78
2022/09/06 06:12:48;;;;;;;33.88;27.27;;;;;;;17.75;100.00;68742.00;5036521;28;20041;-78
2022/09/06 06:15:13;;;;;;;31.48;26.48;;;;;;;17.74;100.00;68746.25;5035976;28;20057;-78
2022/09/06 06:17:39;;;;;;;34.38;28.83;;;;;;;;;;5035027;28;20057;-78
2022/09/06 06:20:04;;;;;;;39.10;30.30;;;;;;;17.78;100.00;68750.84;5036777;28;20037;-77
2022/09/06 06:22:30;;;;;;;35.53;29.02;;;;;;;;;;5033160;28;20884;-77
2022/09/06 06:24:55;;;;;;;35.07;28.23;;;;;;;17.87;100.00;68759.97;5035911;28;20773;-77
2022/09/06 06:27:21;;;;;;;37.20;28.48;;;;;;;;;;5034611;28;20302;-78
2022/09/06 06:29:46;;;;;;;30.43;26.07;;;;;;;17.94;100.00;68768.53;5034781;28;20467;-78
2022/09/06 06:32:11;;;;;;;37.58;26.15;;;;;;;18.09;100.00;68784.50;5033880;28;20284;-78
2022/09/06 06:34:37;;;;;;;30.67;26.75;;;;;;;18.12;100.00;68787.94;5037849;28;20071;-78
2022/09/06 06:37:02;;;;;;;30.15;26.42;;;;;;;;;;5029316;28;20144;-77
2022/09/06 06:39:28;;;;;;;28.77;25.70;;;;;;;18.21;100.00;68790.69;5034594;28;20041;-78
2022/09/06 06:41:54;;;;;;;30.90;27.05;;;;;;;18.26;100.00;68804.47;5033895;28;20126;-78
2022/09/06 06:44:19;;;;;;;30.92;26.17;;;;;;;18.30;100.00;68808.50;5034265;28;20068;-77
2022/09/06 06:46:45;;;;;;;29.90;24.95;;;;;;;18.33;100.00;68817.31;5031345;28;20064;-78
2022/09/06 06:49:10;;;;;;;32.65;26.73;;;;;;;18.37;100.00;68815.91;5034148;28;20040;-78
2022/09/06 06:51:36;;;;;;;31.63;25.75;;;;;;;;;;5033046;28;20105;-78
2022/09/06 06:54:02;;;;;;;30.33;25.63;;;;;;;18.54;100.00;68829.94;5034888;28;20037;-77
2022/09/06 06:56:31;;;;;;;28.98;25.77;;;;;;;18.59;100.00;68841.03;5032637;28;22259;-78
2022/09/06 06:58:59;;;;;;;29.42;25.70;;;;;;;18.63;100.00;68848.28;5035204;28;20037;-77
2022/09/06 07:01:26;;;;;;;28.83;23.90;;;;;;;18.74;100.00;68852.22;5032191;28;20037;-78
2022/09/06 07:03:53;;;;;;;25.98;23.00;;;;;;;18.84;99.95;68869.03;5036205;28;20279;-78
2022/09/06 07:06:19;;;;;;;26.73;21.55;;;;;;;18.89;99.32;68874.16;5032467;28;20045;-78
2022/09/06 07:08:45;;;;;;;25.90;22.52;;;;;;;18.97;99.95;68883.31;5032793;28;20033;-78
2022/09/06 07:11:12;;;;;;;24.75;20.95;;;;;;;;;;5033998;28;20087;-78
2022/09/06 07:13:37;;;;;;;26.98;22.20;;;;;;;19.05;98.60;68887.06;5033831;28;20046;-78
2022/09/06 07:16:14;;;;;;;24.90;21.70;;;;;;;19.09;97.80;68897.00;5033046;28;20048;-77
2022/09/06 07:18:44;;;;;;;24.17;20.92;;;;;;;;;;5048239;28;20068;-77
2022/09/06 07:21:14;;;;;;;23.80;19.98;;;;;;;19.30;95.34;68915.03;5035468;28;20397;-77
2022/09/06 07:23:40;;;;;;;22.23;19.02;;;;;;;19.47;95.46;68939.28;5033806;28;20034;-78
2022/09/06 07:26:07;;;;;;;23.10;19.02;;;;;;;19.59;94.37;68955.13;5033589;28;20049;-77
2022/09/06 07:28:33;;;;;;;21.23;18.10;;;;;;;19.56;93.09;68949.59;5034264;28;20056;-78
2022/09/06 07:30:59;;;;;;;21.75;17.63;;;;;;;19.65;92.31;68959.31;5033787;28;20485;-78
2022/09/06 07:33:24;;;;;;;20.70;18.15;;;;;;;;;;5048449;28;20037;-78
2022/09/06 07:36:01;;;;;;;23.80;18.20;;;;;;;19.87;92.73;68978.47;5033018;28;20056;-78
2022/09/06 07:38:27;;;;;;;18.48;16.48;;;;;;;;;;5034630;28;20040;-78
2022/09/06 07:40:56;;;;;;;19.40;17.33;;;;;;;;;;5033908;28;20041;-78
2022/09/06 07:43:22;;;;;;;;;;;;;;;20.09;89.87;69007.91;5036061;28;20131;-78
2022/09/06 07:45:47;;;;;;;18.15;15.27;;;;;;;20.05;89.29;69004.47;5032881;28;20388;-78
2022/09/06 07:48:13;;;;;;;18.38;15.65;;;;;;;20.18;87.90;69018.19;5033161;28;20037;-78
2022/09/06 07:50:38;;;;;;;18.65;15.48;;;;;;;20.32;86.38;69034.19;5034003;28;20048;-78
2022/09/06 07:53:08;;;;;;;23.40;15.38;;;;;;;20.47;86.18;69045.94;5033195;28;20046;-78
2022/09/06 07:55:33;;;;;;;18.75;15.85;;;;;;;;;;5032747;28;20064;-78
2022/09/06 07:57:58;;;;;;;17.33;15.57;;;;;;;20.67;85.72;69068.25;5033655;28;20052;-78
2022/09/06 08:00:24;;;;;;;17.63;15.63;;;;;;;20.75;86.80;69082.25;5055576;22;20319;-75
2022/09/06 08:02:49;;;;;;;19.13;15.32;;;;;;;20.82;84.13;69084.84;5028858;28;20041;-76
2022/09/06 08:05:14;;;;;;;18.30;14.77;;;;;;;;;;5030173;28;20076;-77
2022/09/06 08:07:40;;;;;;;18.95;15.57;;;;;;;20.97;84.00;69106.84;5029502;28;20416;-78
2022/09/06 08:10:05;;;;;;;16.10;14.40;;;;;;;;;;5028462;28;20524;-77
2022/09/06 08:12:31;;;;;;;16.20;13.65;;;;;;;21.20;82.61;69127.16;5008440;28;20189;-78
2022/09/06 08:14:56;;;;;;;17.88;14.18;;;;;;;;;;5009317;28;20046;-77
2022/09/06 08:17:21;;;;;;;16.00;12.93;;;;;;;;;;5009393;28;20304;-78
2022/09/06 08:19:48;;;;;;;14.23;12.68;;;;;;;;;;5032129;28;20280;-78
2022/09/06 08:22:13;;;;;;;15.35;13.55;;;;;;;;;;5029577;28;20041;-78
2022/09/06 08:24:38;;;;;;;14.73;13.13;;;;;;;;;;5025004;28;20381;-76
2022/09/06 08:27:06;;;;;;;13.98;12.27;;;;;;;;;;5031184;28;20272;-78
2022/09/06 08:29:32;;;;;;;15.38;12.25;;;;;;;21.90;78.47;69205.59;5018680;28;20046;-78
2022/09/06 08:31:58;;;;;;;13.25;11.85;;;;;;;22.11;76.79;69229.03;5025854;28;20068;-78
2022/09/06 08:34:23;;;;;;;13.52;11.80;;;;;;;22.20;76.60;69238.81;5020919;28;20037;-77
2022/09/06 08:36:48;;;;;;;13.93;11.10;;;;;;;22.24;74.75;69243.97;5024379;28;20049;-78
2022/09/06 08:39:14;;;;;;;12.55;10.82;;;;;;;22.41;74.92;69262.28;5031019;28;20079;-77
2022/09/06 08:41:54;;;;;;;14.65;10.77;;;;;;;22.50;73.41;69273.16;5029546;28;20049;-78
2022/09/06 08:44:36;;;;;;;12.95;9.70;;;;;;;22.70;73.85;69300.91;5029963;28;20057;-78
2022/09/06 08:47:09;;;;;;;14.35;9.65;;;;;;;;;;5011398;28;20113;-78
2022/09/06 08:49:46;;;;;;;12.75;8.65;;;;;;;22.97;70.32;69325.88;5012581;28;20045;-78
2022/09/06 08:52:16;;;;;;;9.48;8.05;;;;;;;;;;5015402;28;20484;-78
2022/09/06 08:55:03;;;;;;;11.38;7.70;;;;;;;23.15;68.38;69345.34;5029647;28;20029;-77
2022/09/06 08:57:53;;;;;;;11.82;8.18;;;;;;;23.25;67.28;69356.22;5028864;28;20041;-78
2022/09/06 09:00:19;;;;;;;9.25;7.07;;;;;;;23.30;67.16;69361.94;5025942;28;20049;-77
2022/09/06 09:02:58;;;;;;;8.30;6.85;;;;;;;23.37;66.29;69367.25;5014606;28;20536;-76
2022/09/06 09:05:26;;;;;;;9.48;6.43;;;;;;;;;;5020041;28;20579;-76
2022/09/06 09:08:19;;;;;;;12.00;6.80;;;;;;;23.47;64.97;69380.84;5023728;28;20051;-76
2022/09/06 09:10:49;;;;;;;7.50;5.82;;;;;;;23.58;64.00;69394.03;5007410;28;20516;-78
2022/09/06 09:13:23;;;;;;;8.40;5.50;;;;;;;;;;5022500;28;20047;-77
2022/09/06 09:15:48;;;;;;;12.27;6.25;;;;;;;23.95;64.65;69434.75;5020095;28;20132;-77
2022/09/06 09:18:20;;;;;;;9.55;6.57;;;;;;;23.96;64.46;69436.47;5025652;28;20168;-78
2022/09/06 09:20:45;;;;;;;8.15;5.57;;;;;;;24.17;62.50;69459.38;5025262;28;20465;-77
2022/09/06 09:23:11;;;;;;;7.82;5.57;;;;;;;24.25;61.74;69468.56;5011272;28;20064;-78
2022/09/06 09:25:38;;;;;;;6.38;5.00;;;;;;;24.28;60.33;69472.59;5024425;28;20042;-81
2022/09/06 09:28:13;;;;;;;6.55;5.10;;;;;;;24.39;60.38;69484.63;5022123;28;20497;-77
2022/09/06 09:30:48;;;;;;;8.75;5.45;;;;;;;24.39;58.02;69484.63;5004188;28;20513;-77
2022/09/06 09:33:35;;;;;;;6.30;4.85;;;;;;;24.38;58.97;69482.91;5013991;28;20497;-78
2022/09/06 09:36:16;;;;;;;7.28;4.97;;;;;;;24.35;58.40;69477.31;5016793;28;20054;-77
2022/09/06 09:38:44;;;;;;;10.27;5.20;;;;;;;24.41;58.11;69486.34;5033902;28;20045;-77
2022/09/06 09:41:27;;;;;;;6.50;5.22;;;;;;;24.43;57.56;69489.25;5024488;28;20307;-81
2022/09/06 09:43:57;;;;;;;6.63;5.35;;;;;;;24.66;58.59;69509.03;4988026;28;20078;-77
2022/09/06 09:46:22;;;;;;;7.43;4.60;;;;;;;24.93;58.89;69544.84;4986455;28;20576;-77
2022/09/06 09:49:08;;;;;;;6.55;4.75;;;;;;;25.10;57.68;69564.34;5016354;28;20085;-77
2022/09/06 09:51:40;;;;;;;7.03;4.00;;;;;;;25.32;56.90;69588.47;4989933;28;20070;-77
2022/09/06 09:54:08;;;;;;;6.68;4.65;;;;;;;25.20;54.86;69569.81;5023200;28;20064;-77
2022/09/06 09:56:54;;;;;;;6.00;3.85;;;;;;;25.30;54.38;69580.72;5022844;28;20033;-77
2022/09/06 09:59:37;;;;;;;8.02;4.53;;;;;;;25.24;53.77;69573.84;5008039;28;20309;-77
2022/09/06 10:02:15;;;;;;;6.03;4.10;;;;;;;25.10;53.32;69563.78;5006451;28;20092;-77
2022/09/06 10:04:45;;;;;;;6.63;4.43;;;;;;;;;;5007437;28;20041;-77
2022/09/06 10:07:15;;;;;;;5.75;3.83;;;;;;;25.20;53.33;69575.28;5025722;28;20037;-80
2022/09/06 10:09:45;;;;;;;9.52;4.43;;;;;;;25.23;54.20;69576.00;5021997;28;20046;-77
2022/09/06 10:12:26;;;;;;;6.32;3.85;;;;;;;25.49;53.24;69608.00;5029628;28;20064;-77
2022/09/06 10:14:51;;;;;;;5.28;3.28;;;;;;;25.58;52.90;69617.75;5000696;28;20408;-78
2022/09/06 10:17:28;;;;;;;5.45;3.38;;;;;;;25.65;51.20;69625.78;5028930;28;20048;-77
2022/09/06 10:19:53;;;;;;;5.40;2.72;;;;;;;25.75;52.34;69634.53;5028392;28;20260;-77
2022/09/06 10:22:30;;;;;;;6.20;2.60;;;;;;;25.76;51.37;69643.84;5026224;28;20052;-76
2022/09/06 10:25:09;;;;;;;6.75;3.28;;;;;;;26.00;50.67;69659.34;5009142;28;20140;-78
2022/09/06 10:27:36;;;;;;;5.22;2.97;;;;;;;25.96;51.45;69660.22;5009274;28;20042;-76
2022/09/06 10:30:05;;;;;;;5.22;2.63;;;;;;;26.19;51.64;69686.63;5008438;28;20050;-77
2022/09/06 10:32:46;;;;;;;4.93;2.67;;;;;;;26.34;49.22;69703.84;5009218;28;20077;-77
2022/09/06 10:35:18;;;;;;;4.80;2.70;;;;;;;26.22;48.90;69687.34;5015480;28;20400;-79
2022/09/06 10:37:52;;;;;;;4.85;2.65;;;;;;;26.33;49.08;69702.72;5024890;28;20125;-77
2022/09/06 10:40:41;;;;;;;4.72;2.90;;;;;;;26.42;48.71;69712.47;5003004;28;20046;-77
2022/09/06 10:43:10;;;;;;;5.00;2.53;;;;;;;;;;5018783;28;20366;-78
2022/09/06 10:45:49;;;;;;;5.40;3.40;;;;;;;26.50;48.25;69718.38;5020852;28;20061;-78
2022/09/06 10:48:31;;;;;;;4.68;2.80;;;;;;;26.48;48.38;69719.34;5008234;28;20049;-77
2022/09/06 10:51:10;;;;;;;6.00;2.63;;;;;;;26.62;47.62;69732.16;5028610;28;20038;-77
2022/09/06 10:53:39;;;;;;;5.10;3.17;;;;;;;;;;5021935;28;20152;-77
2022/09/06 10:56:11;;;;;;;4.55;2.55;;;;;;;26.76;47.49;69745.50;5025961;28;20485;-77
2022/09/06 10:59:06;;;;;;;3.97;2.80;;;;;;;26.76;47.04;69750.38;5028766;28;20048;-77
2022/09/06 11:02:04;;;;;;;7.38;4.50;;;;;;;26.60;47.10;69732.56;5020270;28;20060;-79
2022/09/06 11:04:37;;;;;;;5.63;2.92;;;;;;;26.53;47.85;69722.38;5023326;28;20041;-78
2022/09/06 11:07:12;;;;;;;5.05;3.38;;;;;;;26.68;47.41;69741.19;5028254;28;20133;-77
2022/09/06 11:09:43;;;;;;;5.00;2.97;;;;;;;26.92;47.43;69768.75;5018569;28;20623;-77
2022/09/06 11:12:24;;;;;;;4.55;2.50;;;;;;;27.32;46.99;69813.00;5027116;28;20439;-77
2022/09/06 11:14:50;;;;;;;3.33;2.20;;;;;;;27.50;46.38;69830.38;5022467;28;20045;-80
2022/09/06 11:17:57;;;;;;;5.28;2.38;;;;;;;27.38;43.76;69820.47;5028149;28;20397;-77
2022/09/06 11:20:51;;;;;;;3.67;2.47;;;;;;;27.14;46.00;69790.72;5010578;28;20405;-79
2022/09/06 11:23:39;;;;;;;3.53;1.95;;;;;;;27.39;45.96;69821.63;4994835;28;20049;-77
2022/09/06 11:26:27;;;;;;;5.13;1.92;;;;;;;27.93;45.23;69879.25;5010642;28;20501;-79
2022/09/06 11:29:05;;;;;;;3.75;1.98;;;;;;;27.93;43.13;69881.97;5016457;28;20041;-77
2022/09/06 11:31:33;;;;;;;2.50;1.67;;;;;;;27.85;44.64;69867.31;5006334;28;20042;-79
2022/09/06 11:34:06;;;;;;;6.05;1.80;;;;;;;28.04;42.62;69889.16;5024156;28;20057;-77
2022/09/06 11:36:43;;;;;;;4.53;1.80;;;;;;;28.08;43.86;69895.91;5013001;28;20230;-77
2022/09/06 11:39:10;;;;;;;4.32;1.77;;;;;;;28.00;43.23;69890.03;5024309;28;20133;-79
2022/09/06 11:41:41;;;;;;;4.35;1.77;;;;;;;27.91;43.53;69874.22;5024529;28;20531;-78
2022/09/06 11:44:08;;;;;;;3.78;1.50;;;;;;;27.99;42.62;69888.88;5024179;28;20041;-77
2022/09/06 11:46:34;;;;;;;3.37;1.50;;;;;;;28.09;43.21;69894.91;5017604;28;20053;-77
2022/09/06 11:49:02;;;;;;;4.63;1.95;;;;;;;28.13;41.66;69904.97;5020542;28;20427;-81
2022/09/06 11:51:37;;;;;;;3.42;1.83;;;;;;;28.10;42.37;69893.31;5000794;28;20066;-79
2022/09/06 11:54:21;;;;;;;3.97;2.00;;;;;;;28.18;42.00;69906.84;5011950;28;20045;-77
2022/09/06 11:56:53;;;;;;;2.88;1.63;;;;;;;28.51;42.16;69944.81;5021432;28;20041;-78
2022/09/06 11:59:26;;;;;;;3.35;1.73;;;;;;;28.67;41.42;69959.31;5004649;28;20536;-78
2022/09/06 12:01:54;;;;;;;6.18;2.13;;;;;;;28.47;41.07;69940.19;5002531;28;20486;-77
2022/09/06 12:04:21;;;;;;;3.58;2.20;;;;;;;28.58;41.78;69948.97;5010878;28;20455;-78
2022/09/06 12:07:10;;;;;;;4.88;2.08;;;;;;;28.49;42.54;69945.22;5006881;28;20073;-78
2022/09/06 12:09:41;;;;;;;4.53;2.10;;;;;;;28.76;40.98;69975.13;5026461;28;20128;-77
2022/09/06 12:12:07;;;;;;;3.00;1.70;;;;;;;28.80;41.16;69977.00;5005807;28;20042;-80
2022/09/06 12:14:45;;;;;;;3.33;1.65;;;;;;;29.05;40.60;70002.44;5016322;28;20045;-78
2022/09/06 12:17:13;;;;;;;3.50;1.70;;;;;;;29.16;39.95;70015.09;5012121;28;20052;-78
2022/09/06 12:20:05;;;;;;;2.97;1.60;;;;;;;29.40;39.73;70042.13;5016510;28;20041;-78
2022/09/06 12:22:34;;;;;;;3.53;1.67;;;;;;;29.58;39.96;70064.44;5017557;28;20091;-78